sensor_id;sensor_type;location;lat;lon;timestamp;temperature;humidity
13848;DHT22;6994;49.752;6.094;2023-10-13T00:00:29;15.70;99.90
13848;DHT22;6994;49.752;6.094;2023-10-13T00:03:05;15.70;99.90
13848;DHT22;6994;49.752;6.094;2023-10-13T00:05:33;15.70;99.90
13848;DHT22;6994;49.752;6.094;2023-10-13T00:08:01;15.70;99.90
13848;DHT22;6994;49.752;6.094;2023-10-13T00:10:28;15.80;99.90
13848;DHT22;6994;49.752;6.094;2023-10-13T00:12:54;15.80;99.90
13848;DHT22;6994;49.752;6.094;2023-10-13T00:15:22;15.80;99.90
13848;DHT22;6994;49.752;6.094;2023-10-13T00:17:49;15.80;99.90
13848;DHT22;6994;49.752;6.094;2023-10-13T00:20:16;15.70;99.90
13848;DHT22;6994;49.752;6.094;2023-10-13T00:22:43;15.70;99.90
13848;DHT22;6994;49.752;6.094;2023-10-13T00:25:11;15.70;99.90
13848;DHT22;6994;49.752;6.094;2023-10-13T00:27:39;15.80;99.90
13848;DHT22;6994;49.752;6.094;2023-10-13T00:30:07;15.70;99.90
13848;DHT22;6994;49.752;6.094;2023-10-13T00:32:43;15.80;99.90
13848;DHT22;6994;49.752;6.094;2023-10-13T00:35:10;15.80;99.90
13848;DHT22;6994;49.752;6.094;2023-10-13T00:37:37;15.90;99.90
13848;DHT22;6994;49.752;6.094;2023-10-13T00:40:04;15.90;99.90
13848;DHT22;6994;49.752;6.094;2023-10-13T00:42:31;15.90;99.90
13848;DHT22;6994;49.752;6.094;2023-10-13T00:44:58;16.00;99.90
13848;DHT22;6994;49.752;6.094;2023-10-13T00:47:26;16.00;99.90
13848;DHT22;6994;49.752;6.094;2023-10-13T00:49:59;16.00;99.90
13848;DHT22;6994;49.752;6.094;2023-10-13T00:52:27;16.00;99.90
13848;DHT22;6994;49.752;6.094;2023-10-13T00:54:55;16.10;99.90
13848;DHT22;6994;49.752;6.094;2023-10-13T00:57:22;16.00;99.90
13848;DHT22;6994;49.752;6.094;2023-10-13T00:59:58;16.00;99.90
13848;DHT22;6994;49.752;6.094;2023-10-13T01:02:25;16.10;99.90
13848;DHT22;6994;49.752;6.094;2023-10-13T01:04:53;16.00;99.90
13848;DHT22;6994;49.752;6.094;2023-10-13T01:07:20;16.00;99.90
13848;DHT22;6994;49.752;6.094;2023-10-13T01:09:47;16.10;99.90
13848;DHT22;6994;49.752;6.094;2023-10-13T01:12:14;16.40;99.90
13848;DHT22;6994;49.752;6.094;2023-10-13T01:14:41;16.50;99.90
13848;DHT22;6994;49.752;6.094;2023-10-13T01:17:09;16.80;99.90
13848;DHT22;6994;49.752;6.094;2023-10-13T01:19:37;16.80;99.90
13848;DHT22;6994;49.752;6.094;2023-10-13T01:22:05;16.80;99.90
13848;DHT22;6994;49.752;6.094;2023-10-13T01:24:32;16.80;99.90
13848;DHT22;6994;49.752;6.094;2023-10-13T01:26:59;16.70;99.90
13848;DHT22;6994;49.752;6.094;2023-10-13T01:29:26;16.80;99.90
13848;DHT22;6994;49.752;6.094;2023-10-13T01:31:53;17.00;99.90
13848;DHT22;6994;49.752;6.094;2023-10-13T01:34:21;17.10;99.90
13848;DHT22;6994;49.752;6.094;2023-10-13T01:36:52;17.10;99.90
13848;DHT22;6994;49.752;6.094;2023-10-13T01:39:19;17.10;99.90
13848;DHT22;6994;49.752;6.094;2023-10-13T01:41:46;17.10;99.90
13848;DHT22;6994;49.752;6.094;2023-10-13T01:44:13;17.20;99.90
13848;DHT22;6994;49.752;6.094;2023-10-13T01:46:41;17.50;99.90
13848;DHT22;6994;49.752;6.094;2023-10-13T01:49:09;17.50;99.90
13848;DHT22;6994;49.752;6.094;2023-10-13T01:51:37;17.50;99.90
13848;DHT22;6994;49.752;6.094;2023-10-13T01:54:04;17.40;99.90
13848;DHT22;6994;49.752;6.094;2023-10-13T01:56:31;17.40;99.90
13848;DHT22;6994;49.752;6.094;2023-10-13T01:58:58;17.40;99.90
13848;DHT22;6994;49.752;6.094;2023-10-13T02:01:32;17.70;99.90
13848;DHT22;6994;49.752;6.094;2023-10-13T02:03:55;17.70;99.90
13848;DHT22;6994;49.752;6.094;2023-10-13T02:06:28;17.70;99.90
13848;DHT22;6994;49.752;6.094;2023-10-13T02:08:55;17.70;99.90
13848;DHT22;6994;49.752;6.094;2023-10-13T02:11:22;17.70;99.90
13848;DHT22;6994;49.752;6.094;2023-10-13T02:13:50;17.70;99.90
13848;DHT22;6994;49.752;6.094;2023-10-13T02:16:18;17.70;99.90
13848;DHT22;6994;49.752;6.094;2023-10-13T02:18:47;17.70;99.90
13848;DHT22;6994;49.752;6.094;2023-10-13T02:21:15;17.70;99.90
13848;DHT22;6994;49.752;6.094;2023-10-13T02:23:43;17.70;99.90
13848;DHT22;6994;49.752;6.094;2023-10-13T02:26:10;17.70;99.90
13848;DHT22;6994;49.752;6.094;2023-10-13T02:28:40;17.70;99.90
13848;DHT22;6994;49.752;6.094;2023-10-13T02:31:07;17.60;99.90
13848;DHT22;6994;49.752;6.094;2023-10-13T02:33:34;17.60;99.90
13848;DHT22;6994;49.752;6.094;2023-10-13T02:36:02;17.60;99.90
13848;DHT22;6994;49.752;6.094;2023-10-13T02:38:34;17.60;99.90
13848;DHT22;6994;49.752;6.094;2023-10-13T02:41:01;17.60;99.90
13848;DHT22;6994;49.752;6.094;2023-10-13T02:43:35;17.60;99.90
13848;DHT22;6994;49.752;6.094;2023-10-13T02:46:02;17.60;99.90
13848;DHT22;6994;49.752;6.094;2023-10-13T02:48:29;17.50;99.90
13848;DHT22;6994;49.752;6.094;2023-10-13T02:51:09;17.60;99.90
13848;DHT22;6994;49.752;6.094;2023-10-13T02:53:43;17.60;99.90
13848;DHT22;6994;49.752;6.094;2023-10-13T02:56:10;17.50;99.90
13848;DHT22;6994;49.752;6.094;2023-10-13T02:58:37;17.50;99.90
13848;DHT22;6994;49.752;6.094;2023-10-13T03:01:07;17.50;99.90
13848;DHT22;6994;49.752;6.094;2023-10-13T03:03:37;17.70;99.90
13848;DHT22;6994;49.752;6.094;2023-10-13T03:06:04;17.80;99.90
13848;DHT22;6994;49.752;6.094;2023-10-13T03:08:31;17.80;99.90
13848;DHT22;6994;49.752;6.094;2023-10-13T03:10:58;17.90;99.90
13848;DHT22;6994;49.752;6.094;2023-10-13T03:13:26;18.00;99.90
13848;DHT22;6994;49.752;6.094;2023-10-13T03:15:53;17.90;99.90
13848;DHT22;6994;49.752;6.094;2023-10-13T03:18:20;17.80;99.90
13848;DHT22;6994;49.752;6.094;2023-10-13T03:20:47;17.70;99.90
13848;DHT22;6994;49.752;6.094;2023-10-13T03:23:15;17.70;99.90
13848;DHT22;6994;49.752;6.094;2023-10-13T03:25:42;17.60;99.90
13848;DHT22;6994;49.752;6.094;2023-10-13T03:28:11;17.60;99.90
13848;DHT22;6994;49.752;6.094;2023-10-13T03:30:39;17.60;99.90
13848;DHT22;6994;49.752;6.094;2023-10-13T03:33:06;17.50;99.90
13848;DHT22;6994;49.752;6.094;2023-10-13T03:35:34;17.50;99.90
13848;DHT22;6994;49.752;6.094;2023-10-13T03:38:09;17.70;99.90
13848;DHT22;6994;49.752;6.094;2023-10-13T03:40:49;17.70;99.90
13848;DHT22;6994;49.752;6.094;2023-10-13T03:43:24;17.70;99.90
13848;DHT22;6994;49.752;6.094;2023-10-13T03:45:51;17.90;99.90
13848;DHT22;6994;49.752;6.094;2023-10-13T03:48:21;17.90;99.90
13848;DHT22;6994;49.752;6.094;2023-10-13T03:50:58;17.70;99.90
13848;DHT22;6994;49.752;6.094;2023-10-13T03:53:31;17.70;99.90
13848;DHT22;6994;49.752;6.094;2023-10-13T03:56:05;17.70;99.90
13848;DHT22;6994;49.752;6.094;2023-10-13T03:58:37;17.80;99.90
13848;DHT22;6994;49.752;6.094;2023-10-13T04:01:03;17.80;99.90
13848;DHT22;6994;49.752;6.094;2023-10-13T04:03:31;17.70;99.90
13848;DHT22;6994;49.752;6.094;2023-10-13T04:06:06;17.70;99.90
13848;DHT22;6994;49.752;6.094;2023-10-13T04:08:37;17.60;99.90
13848;DHT22;6994;49.752;6.094;2023-10-13T04:11:11;17.60;99.90
13848;DHT22;6994;49.752;6.094;2023-10-13T04:13:56;17.60;99.90
13848;DHT22;6994;49.752;6.094;2023-10-13T04:16:42;17.50;99.90
13848;DHT22;6994;49.752;6.094;2023-10-13T04:19:17;17.50;99.90
13848;DHT22;6994;49.752;6.094;2023-10-13T04:21:51;17.40;99.90
13848;DHT22;6994;49.752;6.094;2023-10-13T04:24:26;17.40;99.90
13848;DHT22;6994;49.752;6.094;2023-10-13T04:27:02;17.40;99.90
13848;DHT22;6994;49.752;6.094;2023-10-13T04:29:38;17.40;99.90
13848;DHT22;6994;49.752;6.094;2023-10-13T04:32:17;17.30;99.90
13848;DHT22;6994;49.752;6.094;2023-10-13T04:34:54;17.30;99.90
13848;DHT22;6994;49.752;6.094;2023-10-13T04:37:21;17.30;99.90
13848;DHT22;6994;49.752;6.094;2023-10-13T04:39:48;17.30;99.90
13848;DHT22;6994;49.752;6.094;2023-10-13T04:42:16;17.40;99.90
13848;DHT22;6994;49.752;6.094;2023-10-13T04:44:44;17.40;99.90
13848;DHT22;6994;49.752;6.094;2023-10-13T04:47:17;17.40;99.90
13848;DHT22;6994;49.752;6.094;2023-10-13T04:49:46;17.40;99.90
13848;DHT22;6994;49.752;6.094;2023-10-13T04:52:14;17.40;99.90
13848;DHT22;6994;49.752;6.094;2023-10-13T04:54:59;17.40;99.90
13848;DHT22;6994;49.752;6.094;2023-10-13T04:57:27;17.40;99.90
13848;DHT22;6994;49.752;6.094;2023-10-13T05:00:12;17.40;99.90
13848;DHT22;6994;49.752;6.094;2023-10-13T05:02:43;17.30;99.90
13848;DHT22;6994;49.752;6.094;2023-10-13T05:05:10;17.30;99.90
13848;DHT22;6994;49.752;6.094;2023-10-13T05:07:43;17.30;99.90
13848;DHT22;6994;49.752;6.094;2023-10-13T05:10:28;17.30;99.90
13848;DHT22;6994;49.752;6.094;2023-10-13T05:13:13;17.30;99.90
13848;DHT22;6994;49.752;6.094;2023-10-13T05:15:58;17.20;99.90
13848;DHT22;6994;49.752;6.094;2023-10-13T05:18:43;17.20;99.90
13848;DHT22;6994;49.752;6.094;2023-10-13T05:21:28;17.20;99.90
13848;DHT22;6994;49.752;6.094;2023-10-13T05:24:14;17.20;99.90
13848;DHT22;6994;49.752;6.094;2023-10-13T05:26:59;17.20;99.90
13848;DHT22;6994;49.752;6.094;2023-10-13T05:29:45;17.20;99.90
13848;DHT22;6994;49.752;6.094;2023-10-13T05:32:30;17.10;99.90
13848;DHT22;6994;49.752;6.094;2023-10-13T05:35:15;17.10;99.90
13848;DHT22;6994;49.752;6.094;2023-10-13T05:38:00;17.10;99.90
13848;DHT22;6994;49.752;6.094;2023-10-13T05:41:00;17.10;99.90
13848;DHT22;6994;49.752;6.094;2023-10-13T05:43:36;17.10;99.90
13848;DHT22;6994;49.752;6.094;2023-10-13T05:46:22;17.10;99.90
13848;DHT22;6994;49.752;6.094;2023-10-13T05:48:52;17.10;99.90
13848;DHT22;6994;49.752;6.094;2023-10-13T05:51:25;17.10;99.90
13848;DHT22;6994;49.752;6.094;2023-10-13T05:54:10;17.10;99.90
13848;DHT22;6994;49.752;6.094;2023-10-13T05:56:44;17.20;99.90
13848;DHT22;6994;49.752;6.094;2023-10-13T05:59:29;17.20;99.90
13848;DHT22;6994;49.752;6.094;2023-10-13T06:02:18;17.30;99.90
13848;DHT22;6994;49.752;6.094;2023-10-13T06:05:03;17.60;99.90
13848;DHT22;6994;49.752;6.094;2023-10-13T06:07:42;17.60;99.90
13848;DHT22;6994;49.752;6.094;2023-10-13T06:10:27;17.60;99.90
13848;DHT22;6994;49.752;6.094;2023-10-13T06:13:13;17.70;99.90
13848;DHT22;6994;49.752;6.094;2023-10-13T06:15:58;17.70;99.90
13848;DHT22;6994;49.752;6.094;2023-10-13T06:18:44;17.70;99.90
13848;DHT22;6994;49.752;6.094;2023-10-13T06:21:29;17.70;99.90
13848;DHT22;6994;49.752;6.094;2023-10-13T06:24:14;17.90;99.90
13848;DHT22;6994;49.752;6.094;2023-10-13T06:26:59;18.00;99.90
13848;DHT22;6994;49.752;6.094;2023-10-13T06:29:45;17.90;99.90
13848;DHT22;6994;49.752;6.094;2023-10-13T06:32:13;17.90;99.90
13848;DHT22;6994;49.752;6.094;2023-10-13T06:34:40;17.90;99.90
13848;DHT22;6994;49.752;6.094;2023-10-13T06:37:14;17.90;99.90
13848;DHT22;6994;49.752;6.094;2023-10-13T06:39:54;17.90;99.90
13848;DHT22;6994;49.752;6.094;2023-10-13T06:42:18;17.90;99.90
13848;DHT22;6994;49.752;6.094;2023-10-13T06:44:45;18.10;99.90
13848;DHT22;6994;49.752;6.094;2023-10-13T06:47:12;18.20;99.90
13848;DHT22;6994;49.752;6.094;2023-10-13T06:49:40;18.20;99.90
13848;DHT22;6994;49.752;6.094;2023-10-13T06:52:06;18.20;99.90
13848;DHT22;6994;49.752;6.094;2023-10-13T06:54:35;18.20;99.90
13848;DHT22;6994;49.752;6.094;2023-10-13T06:57:02;18.30;99.90
13848;DHT22;6994;49.752;6.094;2023-10-13T06:59:33;18.30;99.90
13848;DHT22;6994;49.752;6.094;2023-10-13T07:01:59;18.30;99.90
13848;DHT22;6994;49.752;6.094;2023-10-13T07:04:27;18.30;99.90
13848;DHT22;6994;49.752;6.094;2023-10-13T07:06:54;18.40;99.90
13848;DHT22;6994;49.752;6.094;2023-10-13T07:09:22;18.50;99.90
13848;DHT22;6994;49.752;6.094;2023-10-13T07:12:05;18.50;99.90
13848;DHT22;6994;49.752;6.094;2023-10-13T07:14:36;18.50;99.90
13848;DHT22;6994;49.752;6.094;2023-10-13T07:17:05;18.50;99.90
13848;DHT22;6994;49.752;6.094;2023-10-13T07:19:29;18.50;99.90
13848;DHT22;6994;49.752;6.094;2023-10-13T07:22:00;18.60;99.90
13848;DHT22;6994;49.752;6.094;2023-10-13T07:24:26;18.80;99.90
13848;DHT22;6994;49.752;6.094;2023-10-13T07:26:59;18.80;99.90
13848;DHT22;6994;49.752;6.094;2023-10-13T07:29:29;18.80;99.90
13848;DHT22;6994;49.752;6.094;2023-10-13T07:31:56;18.80;99.90
13848;DHT22;6994;49.752;6.094;2023-10-13T07:34:24;18.90;99.90
13848;DHT22;6994;49.752;6.094;2023-10-13T07:36:54;19.00;99.90
13848;DHT22;6994;49.752;6.094;2023-10-13T07:39:30;19.10;99.90
13848;DHT22;6994;49.752;6.094;2023-10-13T07:42:03;19.20;99.90
13848;DHT22;6994;49.752;6.094;2023-10-13T07:44:33;19.10;99.90
13848;DHT22;6994;49.752;6.094;2023-10-13T07:47:01;19.10;99.90
13848;DHT22;6994;49.752;6.094;2023-10-13T07:49:38;19.10;99.90
13848;DHT22;6994;49.752;6.094;2023-10-13T07:52:01;19.00;99.90
13848;DHT22;6994;49.752;6.094;2023-10-13T07:54:30;18.90;99.90
13848;DHT22;6994;49.752;6.094;2023-10-13T07:56:58;19.00;99.90
13848;DHT22;6994;49.752;6.094;2023-10-13T07:59:26;19.00;99.90
13848;DHT22;6994;49.752;6.094;2023-10-13T08:01:53;19.00;99.90
13848;DHT22;6994;49.752;6.094;2023-10-13T08:04:38;18.90;99.90
13848;DHT22;6994;49.752;6.094;2023-10-13T08:07:06;18.80;99.90
13848;DHT22;6994;49.752;6.094;2023-10-13T08:09:41;18.70;99.90
13848;DHT22;6994;49.752;6.094;2023-10-13T08:12:08;18.70;99.90
13848;DHT22;6994;49.752;6.094;2023-10-13T08:14:36;18.80;99.90
13848;DHT22;6994;49.752;6.094;2023-10-13T08:17:03;18.80;99.90
13848;DHT22;6994;49.752;6.094;2023-10-13T08:19:31;18.80;99.90
13848;DHT22;6994;49.752;6.094;2023-10-13T08:22:08;18.80;99.90
13848;DHT22;6994;49.752;6.094;2023-10-13T08:24:48;19.00;99.90
13848;DHT22;6994;49.752;6.094;2023-10-13T08:27:17;19.20;99.90
13848;DHT22;6994;49.752;6.094;2023-10-13T08:29:44;19.40;99.90
13848;DHT22;6994;49.752;6.094;2023-10-13T08:32:22;19.40;99.90
13848;DHT22;6994;49.752;6.094;2023-10-13T08:34:55;19.50;99.90
13848;DHT22;6994;49.752;6.094;2023-10-13T08:37:22;19.60;99.90
13848;DHT22;6994;49.752;6.094;2023-10-13T08:39:53;19.70;99.90
13848;DHT22;6994;49.752;6.094;2023-10-13T08:42:29;19.70;99.90
13848;DHT22;6994;49.752;6.094;2023-10-13T08:44:55;19.80;99.90
13848;DHT22;6994;49.752;6.094;2023-10-13T08:47:23;20.10;99.90
13848;DHT22;6994;49.752;6.094;2023-10-13T08:49:50;20.20;99.90
13848;DHT22;6994;49.752;6.094;2023-10-13T08:52:19;20.20;99.90
13848;DHT22;6994;49.752;6.094;2023-10-13T08:54:52;20.30;99.90
13848;DHT22;6994;49.752;6.094;2023-10-13T08:57:20;20.50;99.90
13848;DHT22;6994;49.752;6.094;2023-10-13T08:59:59;20.40;99.90
13848;DHT22;6994;49.752;6.094;2023-10-13T09:02:27;20.60;99.90
13848;DHT22;6994;49.752;6.094;2023-10-13T09:05:12;20.70;99.90
13848;DHT22;6994;49.752;6.094;2023-10-13T09:07:58;20.70;99.90
13848;DHT22;6994;49.752;6.094;2023-10-13T09:10:25;20.70;99.90
13848;DHT22;6994;49.752;6.094;2023-10-13T09:13:01;20.70;99.90
13848;DHT22;6994;49.752;6.094;2023-10-13T09:15:29;20.50;99.90
13848;DHT22;6994;49.752;6.094;2023-10-13T09:17:56;20.50;99.90
13848;DHT22;6994;49.752;6.094;2023-10-13T09:20:42;20.50;99.90
13848;DHT22;6994;49.752;6.094;2023-10-13T09:23:15;20.30;99.90
13848;DHT22;6994;49.752;6.094;2023-10-13T09:25:52;20.20;99.90
13848;DHT22;6994;49.752;6.094;2023-10-13T09:28:28;20.20;99.90
13848;DHT22;6994;49.752;6.094;2023-10-13T09:30:54;20.20;99.90
13848;DHT22;6994;49.752;6.094;2023-10-13T09:33:22;20.30;99.90
13848;DHT22;6994;49.752;6.094;2023-10-13T09:35:48;20.30;99.90
13848;DHT22;6994;49.752;6.094;2023-10-13T09:38:18;20.40;99.90
13848;DHT22;6994;49.752;6.094;2023-10-13T09:40:45;20.50;99.90
13848;DHT22;6994;49.752;6.094;2023-10-13T09:43:19;20.60;99.90
13848;DHT22;6994;49.752;6.094;2023-10-13T09:45:47;20.80;99.90
13848;DHT22;6994;49.752;6.094;2023-10-13T09:48:32;20.80;99.90
13848;DHT22;6994;49.752;6.094;2023-10-13T09:51:02;20.80;99.90
13848;DHT22;6994;49.752;6.094;2023-10-13T09:53:27;20.80;99.90
13848;DHT22;6994;49.752;6.094;2023-10-13T09:56:02;20.70;99.90
13848;DHT22;6994;49.752;6.094;2023-10-13T09:58:27;20.70;99.90
13848;DHT22;6994;49.752;6.094;2023-10-13T10:00:56;20.80;99.90
13848;DHT22;6994;49.752;6.094;2023-10-13T10:03:45;20.80;99.90
13848;DHT22;6994;49.752;6.094;2023-10-13T10:06:12;20.90;99.90
13848;DHT22;6994;49.752;6.094;2023-10-13T10:08:42;21.10;99.90
13848;DHT22;6994;49.752;6.094;2023-10-13T10:14:07;21.40;99.90
13848;DHT22;6994;49.752;6.094;2023-10-13T10:19:20;21.70;99.90
13848;DHT22;6994;49.752;6.094;2023-10-13T10:21:47;21.90;99.90
13848;DHT22;6994;49.752;6.094;2023-10-13T10:24:15;22.00;99.90
13848;DHT22;6994;49.752;6.094;2023-10-13T10:26:51;22.30;99.90
13848;DHT22;6994;49.752;6.094;2023-10-13T10:29:21;22.50;99.90
13848;DHT22;6994;49.752;6.094;2023-10-13T10:31:49;22.90;99.90
13848;DHT22;6994;49.752;6.094;2023-10-13T10:34:16;22.90;99.90
13848;DHT22;6994;49.752;6.094;2023-10-13T10:36:45;23.30;99.90
13848;DHT22;6994;49.752;6.094;2023-10-13T10:39:10;23.50;99.90
13848;DHT22;6994;49.752;6.094;2023-10-13T10:41:37;23.50;99.90
13848;DHT22;6994;49.752;6.094;2023-10-13T10:44:11;23.60;99.90
13848;DHT22;6994;49.752;6.094;2023-10-13T10:46:38;23.60;99.90
13848;DHT22;6994;49.752;6.094;2023-10-13T10:49:05;23.70;99.90
13848;DHT22;6994;49.752;6.094;2023-10-13T10:51:32;23.70;99.90
13848;DHT22;6994;49.752;6.094;2023-10-13T10:54:00;23.80;99.90
13848;DHT22;6994;49.752;6.094;2023-10-13T10:56:26;24.30;99.90
13848;DHT22;6994;49.752;6.094;2023-10-13T10:59:04;24.30;99.90
13848;DHT22;6994;49.752;6.094;2023-10-13T11:01:33;24.10;99.90
13848;DHT22;6994;49.752;6.094;2023-10-13T11:04:01;24.00;99.90
13848;DHT22;6994;49.752;6.094;2023-10-13T11:06:47;24.00;99.90
13848;DHT22;6994;49.752;6.094;2023-10-13T11:09:13;24.00;99.90
13848;DHT22;6994;49.752;6.094;2023-10-13T11:11:49;24.00;99.90
13848;DHT22;6994;49.752;6.094;2023-10-13T11:14:26;24.00;99.90
13848;DHT22;6994;49.752;6.094;2023-10-13T11:16:53;24.00;99.90
13848;DHT22;6994;49.752;6.094;2023-10-13T11:19:43;24.10;99.90
13848;DHT22;6994;49.752;6.094;2023-10-13T11:21:55;24.10;99.90
13848;DHT22;6994;49.752;6.094;2023-10-13T11:24:22;24.20;99.90
13848;DHT22;6994;49.752;6.094;2023-10-13T11:26:49;24.50;99.90
13848;DHT22;6994;49.752;6.094;2023-10-13T11:29:19;24.90;99.90
13848;DHT22;6994;49.752;6.094;2023-10-13T11:31:47;25.20;99.90
13848;DHT22;6994;49.752;6.094;2023-10-13T11:34:13;25.50;99.90
13848;DHT22;6994;49.752;6.094;2023-10-13T11:36:41;25.50;99.90
13848;DHT22;6994;49.752;6.094;2023-10-13T11:39:08;25.40;99.90
13848;DHT22;6994;49.752;6.094;2023-10-13T11:41:35;25.30;99.90
13848;DHT22;6994;49.752;6.094;2023-10-13T11:44:02;25.30;99.90
13848;DHT22;6994;49.752;6.094;2023-10-13T11:46:32;25.10;99.90
13848;DHT22;6994;49.752;6.094;2023-10-13T11:49:05;24.90;99.90
13848;DHT22;6994;49.752;6.094;2023-10-13T11:51:48;24.30;99.90
13848;DHT22;6994;49.752;6.094;2023-10-13T11:54:12;24.30;99.90
13848;DHT22;6994;49.752;6.094;2023-10-13T11:56:39;24.20;99.90
13848;DHT22;6994;49.752;6.094;2023-10-13T11:59:06;24.20;99.90
13848;DHT22;6994;49.752;6.094;2023-10-13T12:01:34;24.40;99.90
13848;DHT22;6994;49.752;6.094;2023-10-13T12:04:19;24.40;99.90
13848;DHT22;6994;49.752;6.094;2023-10-13T12:07:04;24.30;99.90
13848;DHT22;6994;49.752;6.094;2023-10-13T12:09:47;24.10;99.90
13848;DHT22;6994;49.752;6.094;2023-10-13T12:12:20;24.00;99.90
13848;DHT22;6994;49.752;6.094;2023-10-13T12:14:47;24.00;99.90
13848;DHT22;6994;49.752;6.094;2023-10-13T12:17:20;24.00;99.90
13848;DHT22;6994;49.752;6.094;2023-10-13T12:19:47;24.20;99.90
13848;DHT22;6994;49.752;6.094;2023-10-13T12:22:14;24.50;99.90
13848;DHT22;6994;49.752;6.094;2023-10-13T12:24:41;24.70;99.90
13848;DHT22;6994;49.752;6.094;2023-10-13T12:27:08;24.80;99.90
13848;DHT22;6994;49.752;6.094;2023-10-13T12:29:41;25.00;99.90
13848;DHT22;6994;49.752;6.094;2023-10-13T12:32:09;25.00;99.90
13848;DHT22;6994;49.752;6.094;2023-10-13T12:34:37;25.20;99.90
13848;DHT22;6994;49.752;6.094;2023-10-13T12:37:23;25.20;99.90
13848;DHT22;6994;49.752;6.094;2023-10-13T12:40:14;25.50;99.90
13848;DHT22;6994;49.752;6.094;2023-10-13T12:43:00;26.10;99.90
13848;DHT22;6994;49.752;6.094;2023-10-13T12:45:46;26.10;99.90
13848;DHT22;6994;49.752;6.094;2023-10-13T12:48:31;26.20;99.90
13848;DHT22;6994;49.752;6.094;2023-10-13T12:51:16;26.10;99.90
13848;DHT22;6994;49.752;6.094;2023-10-13T12:53:58;26.30;99.90
13848;DHT22;6994;49.752;6.094;2023-10-13T12:56:34;26.10;99.90
13848;DHT22;6994;49.752;6.094;2023-10-13T12:59:01;26.10;99.90
13848;DHT22;6994;49.752;6.094;2023-10-13T13:01:29;25.60;99.90
13848;DHT22;6994;49.752;6.094;2023-10-13T13:04:03;25.40;99.90
13848;DHT22;6994;49.752;6.094;2023-10-13T13:06:31;25.30;99.90
13848;DHT22;6994;49.752;6.094;2023-10-13T13:08:59;25.30;99.90
13848;DHT22;6994;49.752;6.094;2023-10-13T13:11:27;25.80;99.90
13848;DHT22;6994;49.752;6.094;2023-10-13T13:13:57;25.80;99.90
13848;DHT22;6994;49.752;6.094;2023-10-13T13:16:24;25.90;99.90
13848;DHT22;6994;49.752;6.094;2023-10-13T13:18:51;26.10;99.90
13848;DHT22;6994;49.752;6.094;2023-10-13T13:21:18;25.90;99.90
13848;DHT22;6994;49.752;6.094;2023-10-13T13:23:49;25.90;99.90
13848;DHT22;6994;49.752;6.094;2023-10-13T13:26:16;26.00;99.90
13848;DHT22;6994;49.752;6.094;2023-10-13T13:28:43;26.00;99.90
13848;DHT22;6994;49.752;6.094;2023-10-13T13:31:10;25.90;99.90
13848;DHT22;6994;49.752;6.094;2023-10-13T13:33:37;26.20;99.90
13848;DHT22;6994;49.752;6.094;2023-10-13T13:36:05;26.00;99.90
13848;DHT22;6994;49.752;6.094;2023-10-13T13:38:32;25.80;99.90
13848;DHT22;6994;49.752;6.094;2023-10-13T13:40:59;25.70;99.90
13848;DHT22;6994;49.752;6.094;2023-10-13T13:43:27;25.50;99.90
13848;DHT22;6994;49.752;6.094;2023-10-13T13:46:06;25.50;99.90
13848;DHT22;6994;49.752;6.094;2023-10-13T13:48:33;25.40;99.90
13848;DHT22;6994;49.752;6.094;2023-10-13T13:51:03;25.40;99.90
13848;DHT22;6994;49.752;6.094;2023-10-13T13:53:33;25.30;99.90
13848;DHT22;6994;49.752;6.094;2023-10-13T13:56:03;25.30;99.90
13848;DHT22;6994;49.752;6.094;2023-10-13T13:58:30;25.60;99.90
13848;DHT22;6994;49.752;6.094;2023-10-13T14:01:04;25.50;99.90
13848;DHT22;6994;49.752;6.094;2023-10-13T14:03:43;25.50;99.90
13848;DHT22;6994;49.752;6.094;2023-10-13T14:06:16;25.30;99.90
13848;DHT22;6994;49.752;6.094;2023-10-13T14:08:47;25.30;99.90
13848;DHT22;6994;49.752;6.094;2023-10-13T14:11:17;25.30;99.90
13848;DHT22;6994;49.752;6.094;2023-10-13T14:13:45;25.00;99.90
13848;DHT22;6994;49.752;6.094;2023-10-13T14:16:13;24.90;99.90
13848;DHT22;6994;49.752;6.094;2023-10-13T14:18:46;24.80;99.90
13848;DHT22;6994;49.752;6.094;2023-10-13T14:21:13;24.70;99.90
13848;DHT22;6994;49.752;6.094;2023-10-13T14:23:46;24.90;99.90
13848;DHT22;6994;49.752;6.094;2023-10-13T14:26:13;25.00;99.90
13848;DHT22;6994;49.752;6.094;2023-10-13T14:28:40;25.00;99.90
13848;DHT22;6994;49.752;6.094;2023-10-13T14:31:31;25.20;99.90
13848;DHT22;6994;49.752;6.094;2023-10-13T14:33:58;25.30;99.90
13848;DHT22;6994;49.752;6.094;2023-10-13T14:36:26;25.70;99.90
13848;DHT22;6994;49.752;6.094;2023-10-13T14:38:56;25.70;99.90
13848;DHT22;6994;49.752;6.094;2023-10-13T14:41:24;25.80;99.90
13848;DHT22;6994;49.752;6.094;2023-10-13T14:43:51;25.90;99.90
13848;DHT22;6994;49.752;6.094;2023-10-13T14:46:19;25.90;99.90
13848;DHT22;6994;49.752;6.094;2023-10-13T14:48:45;26.10;99.90
13848;DHT22;6994;49.752;6.094;2023-10-13T14:51:13;26.30;99.90
13848;DHT22;6994;49.752;6.094;2023-10-13T14:53:41;26.40;99.90
13848;DHT22;6994;49.752;6.094;2023-10-13T14:56:11;26.40;99.90
13848;DHT22;6994;49.752;6.094;2023-10-13T14:58:36;26.30;99.90
13848;DHT22;6994;49.752;6.094;2023-10-13T15:01:09;26.20;99.90
13848;DHT22;6994;49.752;6.094;2023-10-13T15:03:30;26.10;99.90
13848;DHT22;6994;49.752;6.094;2023-10-13T15:05:57;26.00;99.90
13848;DHT22;6994;49.752;6.094;2023-10-13T15:08:24;25.90;99.90
13848;DHT22;6994;49.752;6.094;2023-10-13T15:10:52;25.90;99.90
13848;DHT22;6994;49.752;6.094;2023-10-13T15:13:20;26.00;99.90
13848;DHT22;6994;49.752;6.094;2023-10-13T15:15:48;26.10;99.90
13848;DHT22;6994;49.752;6.094;2023-10-13T15:18:16;26.00;99.90
13848;DHT22;6994;49.752;6.094;2023-10-13T15:20:43;26.00;99.90
13848;DHT22;6994;49.752;6.094;2023-10-13T15:23:10;26.00;99.90
13848;DHT22;6994;49.752;6.094;2023-10-13T15:25:38;25.60;99.90
13848;DHT22;6994;49.752;6.094;2023-10-13T15:28:06;25.40;99.90
13848;DHT22;6994;49.752;6.094;2023-10-13T15:30:34;25.40;99.90
13848;DHT22;6994;49.752;6.094;2023-10-13T15:33:13;25.20;99.90
13848;DHT22;6994;49.752;6.094;2023-10-13T15:35:42;25.10;99.90
13848;DHT22;6994;49.752;6.094;2023-10-13T15:38:10;24.90;99.90
13848;DHT22;6994;49.752;6.094;2023-10-13T15:40:43;24.70;99.90
13848;DHT22;6994;49.752;6.094;2023-10-13T15:43:10;24.80;99.90
13848;DHT22;6994;49.752;6.094;2023-10-13T15:45:37;24.70;99.90
13848;DHT22;6994;49.752;6.094;2023-10-13T15:48:07;24.50;99.90
13848;DHT22;6994;49.752;6.094;2023-10-13T15:50:37;24.40;99.90
13848;DHT22;6994;49.752;6.094;2023-10-13T15:53:07;24.20;99.90
13848;DHT22;6994;49.752;6.094;2023-10-13T15:55:37;24.10;99.90
13848;DHT22;6994;49.752;6.094;2023-10-13T15:58:04;23.90;99.90
13848;DHT22;6994;49.752;6.094;2023-10-13T16:00:33;23.50;99.90
13848;DHT22;6994;49.752;6.094;2023-10-13T16:02:59;23.50;99.90
13848;DHT22;6994;49.752;6.094;2023-10-13T16:05:30;23.40;99.90
13848;DHT22;6994;49.752;6.094;2023-10-13T16:07:57;23.20;99.90
13848;DHT22;6994;49.752;6.094;2023-10-13T16:10:24;23.30;99.90
13848;DHT22;6994;49.752;6.094;2023-10-13T16:12:51;23.20;99.90
13848;DHT22;6994;49.752;6.094;2023-10-13T16:15:19;23.10;99.90